createdAt,value
2018-12-16T00:01:54.276Z,28.80
2018-12-16T00:04:21.982Z,28.80
2018-12-16T00:06:49.544Z,29.77
2018-12-16T00:09:17.063Z,29.13
2018-12-16T00:11:45.472Z,27.43
2018-12-16T00:14:12.952Z,29.13
2018-12-16T00:16:41.197Z,31.57
2018-12-16T00:19:08.694Z,27.43
2018-12-16T00:21:36.635Z,29.20
2018-12-16T00:24:04.292Z,29.50
2018-12-16T00:26:43.772Z,31.33
2018-12-16T00:29:12.317Z,28.57
2018-12-16T00:31:42.634Z,30.07
2018-12-16T00:34:10.155Z,27.03
2018-12-16T00:36:38.628Z,29.90
2018-12-16T00:39:07.038Z,31.17
2018-12-16T00:41:34.533Z,29.10
2018-12-16T00:44:02.980Z,30.27
2018-12-16T00:46:30.556Z,29.13
2018-12-16T00:48:58.065Z,30.90
2018-12-16T00:51:25.625Z,29.83
2018-12-16T00:53:53.135Z,29.23
2018-12-16T00:56:21.538Z,28.17
2018-12-16T00:58:49.069Z,26.27
2018-12-16T01:01:16.755Z,30.07
2018-12-16T01:03:44.740Z,27.33
2018-12-16T01:06:12.235Z,32.50
2018-12-16T01:08:40.276Z,24.27
2018-12-16T01:11:07.892Z,27.47
2018-12-16T01:13:38.277Z,28.07
2018-12-16T01:16:05.818Z,30.10
2018-12-16T01:18:33.384Z,30.10
2018-12-16T01:21:01.737Z,32.93
2018-12-16T01:23:29.225Z,28.30
2018-12-16T01:25:57.125Z,30.33
2018-12-16T01:28:24.679Z,30.27
2018-12-16T01:30:52.235Z,26.97
2018-12-16T01:33:19.767Z,27.87
2018-12-16T01:35:47.372Z,29.20
2018-12-16T01:38:14.865Z,27.93
2018-12-16T01:40:43.178Z,30.33
2018-12-16T01:43:11.181Z,28.37
2018-12-16T01:45:38.805Z,29.70
2018-12-16T01:48:06.354Z,27.97
2018-12-16T01:50:34.096Z,27.27
2018-12-16T01:53:02.684Z,32.53
2018-12-16T01:55:30.276Z,29.13
2018-12-16T01:57:59.424Z,28.07
2018-12-16T02:00:28.643Z,28.77
2018-12-16T02:02:56.253Z,30.53
2018-12-16T02:05:23.814Z,30.77
2018-12-16T02:07:51.287Z,27.67
2018-12-16T02:10:18.850Z,28.97
2018-12-16T02:12:46.424Z,27.90
2018-12-16T02:15:14.657Z,28.93
2018-12-16T02:17:43.291Z,29.37
2018-12-16T02:20:11.632Z,30.10
2018-12-16T02:22:39.118Z,29.03
2018-12-16T02:25:07.853Z,29.83
2018-12-16T02:27:35.507Z,29.97
2018-12-16T02:30:03.302Z,28.50
2018-12-16T02:32:31.058Z,29.53
2018-12-16T02:34:58.567Z,28.70
2018-12-16T02:37:26.254Z,30.93
2018-12-16T02:39:55.692Z,29.70
2018-12-16T02:42:23.217Z,28.90
2018-12-16T02:44:50.960Z,32.87
2018-12-16T02:47:19.271Z,30.33
2018-12-16T02:49:46.760Z,27.53
2018-12-16T02:52:15.767Z,29.57
2018-12-16T02:54:44.061Z,32.93
2018-12-16T02:57:11.641Z,30.50
2018-12-16T02:59:40.523Z,31.40
2018-12-16T03:02:09.064Z,31.30
2018-12-16T03:04:37.625Z,33.77
2018-12-16T03:07:05.130Z,32.37
2018-12-16T03:09:32.727Z,27.47
2018-12-16T03:12:00.359Z,29.40
2018-12-16T03:14:29.235Z,29.33
2018-12-16T03:16:58.672Z,29.73
2018-12-16T03:19:26.149Z,32.53
2018-12-16T03:21:55.702Z,31.33
2018-12-16T03:24:23.210Z,30.17
2018-12-16T03:26:50.813Z,31.77
2018-12-16T03:29:18.386Z,29.57
2018-12-16T03:31:46.076Z,30.67
2018-12-16T03:34:13.625Z,32.33
2018-12-16T03:36:41.211Z,32.30
2018-12-16T03:39:08.778Z,32.00
2018-12-16T03:41:37.103Z,33.17
2018-12-16T03:44:05.041Z,32.03
2018-12-16T03:46:32.517Z,32.53
2018-12-16T03:49:00.056Z,32.33
2018-12-16T03:51:28.538Z,31.90
2018-12-16T03:53:56.095Z,30.90
2018-12-16T03:56:23.575Z,33.90
2018-12-16T03:59:03.476Z,30.73
2018-12-16T04:01:31.023Z,32.77
2018-12-16T04:03:59.509Z,29.73
2018-12-16T04:06:27.052Z,31.13
2018-12-16T04:08:54.679Z,35.30
2018-12-16T04:11:22.367Z,34.10
2018-12-16T04:13:49.913Z,32.67
2018-12-16T04:16:17.408Z,32.00
2018-12-16T04:18:45.938Z,33.03
2018-12-16T04:21:13.486Z,31.87
2018-12-16T04:23:40.999Z,30.33
2018-12-16T04:26:08.616Z,31.33
2018-12-16T04:28:37.525Z,33.33
2018-12-16T04:31:05.978Z,33.60
2018-12-16T04:33:33.491Z,31.80
2018-12-16T04:36:01.126Z,31.03
2018-12-16T04:38:28.622Z,34.03
2018-12-16T04:40:57.771Z,29.97
2018-12-16T04:43:25.288Z,35.40
2018-12-16T04:45:52.785Z,37.63
2018-12-16T04:48:20.322Z,31.87
2018-12-16T04:50:47.922Z,34.67
2018-12-16T04:53:15.475Z,34.07
2018-12-16T04:55:43.348Z,35.03
2018-12-16T04:58:10.885Z,33.53
2018-12-16T05:00:38.517Z,34.37
2018-12-16T05:03:06.067Z,34.93
2018-12-16T05:05:33.569Z,35.10
2018-12-16T05:08:01.963Z,33.67
2018-12-16T05:10:31.053Z,33.03
2018-12-16T05:12:58.635Z,34.33
2018-12-16T05:15:26.269Z,33.53
2018-12-16T05:17:53.879Z,32.97
2018-12-16T05:20:21.393Z,31.87
2018-12-16T05:22:48.950Z,33.07
2018-12-16T05:25:16.558Z,35.80
2018-12-16T05:27:44.038Z,33.47
2018-12-16T05:30:11.648Z,34.03
2018-12-16T05:32:39.292Z,35.43
2018-12-16T05:35:07.245Z,32.97
2018-12-16T05:37:34.786Z,31.67
2018-12-16T05:40:04.034Z,33.07
2018-12-16T05:42:32.506Z,33.03
2018-12-16T05:44:59.997Z,34.80
2018-12-16T05:47:29.221Z,34.23
2018-12-16T05:49:57.644Z,30.23
2018-12-16T05:52:25.249Z,30.73
2018-12-16T05:54:52.793Z,30.80
2018-12-16T05:57:20.439Z,33.67
2018-12-16T05:59:47.960Z,33.80
2018-12-16T06:02:16.128Z,32.17
2018-12-16T06:04:43.641Z,33.98
2018-12-16T06:07:11.197Z,33.50
2018-12-16T06:09:38.762Z,31.97
2018-12-16T06:12:06.730Z,29.27
2018-12-16T06:14:34.249Z,32.97
2018-12-16T06:17:02.718Z,29.70
2018-12-16T06:19:30.322Z,32.40
2018-12-16T06:21:57.888Z,31.53
2018-12-16T06:24:25.442Z,31.47
2018-12-16T06:26:53.823Z,30.30
2018-12-16T06:29:21.391Z,31.70
2018-12-16T06:31:49.016Z,32.80
2018-12-16T06:34:17.564Z,30.13
2018-12-16T06:36:45.246Z,30.13
2018-12-16T06:39:13.393Z,29.60
2018-12-16T06:41:42.374Z,29.03
2018-12-16T06:44:10.728Z,29.60
2018-12-16T06:46:39.989Z,28.97
2018-12-16T06:49:08.935Z,31.10
2018-12-16T06:51:36.471Z,27.37
2018-12-16T06:54:05.166Z,29.67
2018-12-16T06:56:32.973Z,31.63
2018-12-16T06:59:02.280Z,31.87
2018-12-16T07:01:29.758Z,33.27
2018-12-16T07:03:57.267Z,31.20
2018-12-16T07:06:24.913Z,28.90
2018-12-16T07:08:52.880Z,29.20
2018-12-16T07:11:21.758Z,29.30
2018-12-16T07:13:51.940Z,31.27
2018-12-16T07:16:19.965Z,30.83
2018-12-16T07:18:47.881Z,27.27
2018-12-16T07:21:15.535Z,29.70
2018-12-16T07:23:43.181Z,27.00
2018-12-16T07:26:12.006Z,27.90
2018-12-16T07:28:39.699Z,27.10
2018-12-16T07:31:09.014Z,29.63
2018-12-16T07:33:37.261Z,27.00
2018-12-16T07:36:05.969Z,27.23
2018-12-16T07:38:33.464Z,27.97
2018-12-16T07:41:01.065Z,30.10
2018-12-16T07:43:28.792Z,30.90
2018-12-16T07:45:57.243Z,29.40
2018-12-16T07:48:25.283Z,29.60
2018-12-16T07:50:54.717Z,28.33
2018-12-16T07:53:23.986Z,29.00
2018-12-16T07:55:51.627Z,27.80
2018-12-16T07:58:21.599Z,30.40
2018-12-16T08:00:52.532Z,30.87
2018-12-16T08:03:22.251Z,28.80
2018-12-16T08:05:49.835Z,27.97
2018-12-16T08:08:17.618Z,27.53
2018-12-16T08:10:46.002Z,25.70
2018-12-16T08:13:14.038Z,32.47
2018-12-16T08:15:41.933Z,32.60
2018-12-16T08:18:10.176Z,28.27
2018-12-16T08:20:38.409Z,29.40
2018-12-16T08:23:07.578Z,28.67
2018-12-16T08:25:35.212Z,28.60
2018-12-16T08:28:03.935Z,28.43
2018-12-16T08:30:32.341Z,28.63
2018-12-16T08:32:59.888Z,31.83
2018-12-16T08:35:27.955Z,32.67
2018-12-16T08:37:55.424Z,28.63
2018-12-16T08:40:23.047Z,29.43
2018-12-16T08:42:50.602Z,29.77
2018-12-16T08:45:18.151Z,30.80
2018-12-16T08:47:46.061Z,30.53
2018-12-16T08:50:13.739Z,28.77
2018-12-16T08:52:41.800Z,29.67
2018-12-16T08:55:09.330Z,30.27
2018-12-16T08:57:38.326Z,30.83
2018-12-16T09:00:05.949Z,28.13
2018-12-16T09:02:34.500Z,28.47
2018-12-16T09:05:03.572Z,29.10
2018-12-16T09:10:12.852Z,28.87
2018-12-16T09:12:41.176Z,29.70
2018-12-16T09:15:10.679Z,27.03
2018-12-16T09:17:38.176Z,26.67
2018-12-16T09:20:07.133Z,25.83
2018-12-16T09:22:34.637Z,27.17
2018-12-16T09:25:03.588Z,29.43
2018-12-16T09:27:31.076Z,29.17
2018-12-16T09:30:00.355Z,26.97
2018-12-16T09:32:28.483Z,26.20
2018-12-16T09:34:56.886Z,26.57
2018-12-16T09:37:24.379Z,27.60
2018-12-16T09:39:51.958Z,26.00
2018-12-16T09:42:19.402Z,25.00
2018-12-16T09:44:47.239Z,24.83
2018-12-16T09:47:15.705Z,25.93
2018-12-16T09:49:43.245Z,22.80
2018-12-16T09:52:10.798Z,24.80
2018-12-16T09:54:44.253Z,24.50
2018-12-16T09:57:10.235Z,25.83
2018-12-16T09:59:37.970Z,25.70
2018-12-16T10:02:06.267Z,22.80
2018-12-16T10:04:34.508Z,25.20
2018-12-16T10:07:02.052Z,25.23
2018-12-16T10:09:28.894Z,25.77
2018-12-16T10:11:56.752Z,25.17
2018-12-16T10:14:24.530Z,24.73
2018-12-16T10:16:52.212Z,23.13
2018-12-16T10:19:19.776Z,24.63
2018-12-16T10:21:47.334Z,23.23
2018-12-16T10:24:15.003Z,23.47
2018-12-16T10:26:42.831Z,27.27
2018-12-16T10:29:11.637Z,23.47
2018-12-16T10:43:24.074Z,25.17
2018-12-16T10:45:53.092Z,25.20
2018-12-16T10:48:20.646Z,24.27
2018-12-16T10:59:56.263Z,24.47
2018-12-16T11:02:23.707Z,24.93
2018-12-16T11:04:51.246Z,26.27
2018-12-16T11:07:18.697Z,23.83
2018-12-16T11:09:46.186Z,23.40
2018-12-16T11:12:13.633Z,23.70
2018-12-16T11:14:41.272Z,23.33
2018-12-16T11:17:08.722Z,26.00
2018-12-16T11:19:36.199Z,22.60
2018-12-16T11:22:03.727Z,22.30
2018-12-16T11:24:31.388Z,20.80
2018-12-16T11:26:58.959Z,21.03
2018-12-16T11:29:26.628Z,21.00
2018-12-16T11:31:54.620Z,21.33
2018-12-16T11:34:22.089Z,18.60
2018-12-16T11:36:49.582Z,22.43
2018-12-16T11:39:17.062Z,19.93
2018-12-16T11:41:44.526Z,23.30
2018-12-16T11:44:12.006Z,21.50
2018-12-16T11:46:39.548Z,20.20
2018-12-16T11:49:07.096Z,21.73
2018-12-16T11:51:34.797Z,20.00
2018-12-16T11:54:02.457Z,22.63
2018-12-16T11:56:30.295Z,22.30
2018-12-16T11:58:58.054Z,20.90
2018-12-16T12:01:25.617Z,23.00
2018-12-16T12:03:53.518Z,18.67
2018-12-16T12:06:21.079Z,22.20
2018-12-16T12:08:48.559Z,20.60
2018-12-16T12:11:16.287Z,22.23
2018-12-16T12:13:43.859Z,21.00
2018-12-16T12:16:11.412Z,21.37
2018-12-16T12:18:38.865Z,20.87
2018-12-16T12:21:06.460Z,22.17
2018-12-16T12:23:33.957Z,22.87
2018-12-16T12:26:01.512Z,22.50
2018-12-16T12:28:29.230Z,21.53
2018-12-16T12:30:57.050Z,21.83
2018-12-16T12:33:25.955Z,22.13
2018-12-16T12:35:54.181Z,21.10
2018-12-16T12:38:21.803Z,23.53
2018-12-16T12:40:52.510Z,24.30
2018-12-16T12:43:20.067Z,22.50
2018-12-16T12:45:47.741Z,23.37
2018-12-16T12:48:15.308Z,24.47
2018-12-16T12:50:42.958Z,22.50
2018-12-16T12:53:10.569Z,19.77
2018-12-16T12:55:38.171Z,21.40
2018-12-16T12:58:05.684Z,21.10
2018-12-16T13:00:33.193Z,22.70
2018-12-16T13:03:00.658Z,21.03
2018-12-16T13:05:28.493Z,23.27
2018-12-16T13:07:57.029Z,22.30
2018-12-16T13:10:24.655Z,22.90
2018-12-16T13:12:52.221Z,21.67
2018-12-16T13:15:19.734Z,23.13
2018-12-16T13:17:48.278Z,23.30
2018-12-16T13:20:15.748Z,22.10
2018-12-16T13:22:43.211Z,22.13
2018-12-16T13:25:22.636Z,23.60
2018-12-16T13:27:51.154Z,21.90
2018-12-16T13:30:18.690Z,22.00
2018-12-16T13:32:46.199Z,22.73
2018-12-16T13:35:13.675Z,23.13
2018-12-16T13:37:41.150Z,21.90
2018-12-16T13:40:08.817Z,20.53
2018-12-16T13:42:36.361Z,20.93
2018-12-16T13:45:06.383Z,20.87
2018-12-16T13:47:34.119Z,21.60
2018-12-16T13:50:01.813Z,20.13
2018-12-16T13:52:29.583Z,23.67
2018-12-16T13:54:57.233Z,21.63
2018-12-16T13:57:24.829Z,22.57
2018-12-16T13:59:52.345Z,20.03
2018-12-16T14:02:19.836Z,22.53
2018-12-16T14:04:47.312Z,21.23
2018-12-16T14:07:14.912Z,20.17
2018-12-16T14:09:42.707Z,20.30
2018-12-16T14:12:10.198Z,22.13
2018-12-16T14:14:38.318Z,21.57
2018-12-16T14:17:05.963Z,20.33
2018-12-16T14:19:33.579Z,23.77
2018-12-16T14:22:01.304Z,20.50
2018-12-16T14:24:28.792Z,20.60
2018-12-16T14:26:56.317Z,21.60
2018-12-16T14:29:24.346Z,22.97
2018-12-16T14:31:51.868Z,22.93
2018-12-16T14:34:19.334Z,23.17
2018-12-16T14:36:46.842Z,21.80
2018-12-16T14:39:14.424Z,20.10
2018-12-16T14:41:42.933Z,18.83
2018-12-16T14:44:10.722Z,22.17
2018-12-16T14:46:38.309Z,20.63
2018-12-16T14:49:06.219Z,22.00
2018-12-16T14:51:33.899Z,21.33
2018-12-16T14:54:01.603Z,22.77
2018-12-16T14:56:29.283Z,21.40
2018-12-16T14:58:56.787Z,21.70
2018-12-16T15:01:24.399Z,23.07
2018-12-16T15:03:51.876Z,19.80
2018-12-16T15:06:20.383Z,21.17
2018-12-16T15:08:52.670Z,20.10
2018-12-16T15:11:20.382Z,19.67
2018-12-16T15:13:48.504Z,20.37
2018-12-16T15:16:16.064Z,20.30
2018-12-16T15:18:43.862Z,21.73
2018-12-16T15:21:12.108Z,21.33
2018-12-16T15:23:40.345Z,19.10
2018-12-16T15:26:08.407Z,21.20
2018-12-16T15:28:35.981Z,20.20
2018-12-16T15:31:03.543Z,22.33
2018-12-16T15:33:31.093Z,22.03
2018-12-16T15:35:58.743Z,20.37
2018-12-16T15:38:27.189Z,22.00
2018-12-16T15:40:54.853Z,24.03
2018-12-16T15:43:23.829Z,21.43
2018-12-16T15:45:51.381Z,22.47
2018-12-16T15:48:19.097Z,23.07
2018-12-16T15:50:47.882Z,21.93
2018-12-16T15:53:15.541Z,25.67
2018-12-16T15:55:43.196Z,23.57
2018-12-16T15:58:10.690Z,24.00
2018-12-16T16:00:38.183Z,25.57
2018-12-16T16:03:05.823Z,23.30
2018-12-16T16:05:33.755Z,25.83
2018-12-16T16:08:01.475Z,27.30
2018-12-16T16:10:30.005Z,27.13
2018-12-16T16:12:57.827Z,26.03
2018-12-16T16:15:25.515Z,22.87
2018-12-16T16:17:53.401Z,25.47
2018-12-16T16:20:20.971Z,26.37
2018-12-16T16:22:48.573Z,23.97
2018-12-16T16:25:16.883Z,21.93
2018-12-16T16:27:45.159Z,27.40
2018-12-16T16:30:12.766Z,22.90
2018-12-16T16:32:40.284Z,26.87
2018-12-16T16:35:08.376Z,24.80
2018-12-16T16:37:36.123Z,26.67
2018-12-16T16:40:04.704Z,24.90
2018-12-16T16:42:32.349Z,24.40
2018-12-16T16:44:59.832Z,25.90
2018-12-16T16:47:27.341Z,25.07
2018-12-16T16:49:54.872Z,26.07
2018-12-16T16:52:22.364Z,22.63
2018-12-16T16:54:49.866Z,23.90
2018-12-16T16:57:17.623Z,25.60
2018-12-16T16:59:45.174Z,26.13
2018-12-16T17:02:12.920Z,25.33
2018-12-16T17:04:40.599Z,23.23
2018-12-16T17:07:08.158Z,26.60
2018-12-16T17:09:35.628Z,26.80
2018-12-16T17:12:03.183Z,25.10
2018-12-16T17:14:30.662Z,24.83
2018-12-16T17:16:58.271Z,26.00
2018-12-16T17:19:25.979Z,25.73
2018-12-16T17:21:53.765Z,26.50
2018-12-16T17:24:21.279Z,27.07
2018-12-16T17:26:48.863Z,26.03
2018-12-16T17:29:16.723Z,28.30
2018-12-16T17:31:44.335Z,27.83
2018-12-16T17:34:11.955Z,28.60
2018-12-16T17:36:40.350Z,25.43
2018-12-16T17:39:08.657Z,24.70
2018-12-16T17:41:36.147Z,28.10
2018-12-16T17:44:05.098Z,24.30
2018-12-16T17:46:32.600Z,27.23
2018-12-16T17:49:00.108Z,25.77
2018-12-16T17:51:28.567Z,26.10
2018-12-16T17:53:56.024Z,22.97
2018-12-16T17:56:23.821Z,25.83
2018-12-16T17:58:51.379Z,26.67
2018-12-16T18:01:19.102Z,23.83
2018-12-16T18:03:46.945Z,27.63
2018-12-16T18:06:14.906Z,25.93
2018-12-16T18:08:42.448Z,24.90
2018-12-16T18:11:09.924Z,28.13
2018-12-16T18:13:37.432Z,25.23
2018-12-16T18:16:05.556Z,27.17
2018-12-16T18:18:33.060Z,28.87
2018-12-16T18:21:00.826Z,27.40
2018-12-16T18:23:29.770Z,25.83
2018-12-16T18:25:58.259Z,24.73
2018-12-16T18:28:25.854Z,28.90
2018-12-16T18:30:53.473Z,28.40
2018-12-16T18:33:21.267Z,29.33
2018-12-16T18:35:48.737Z,31.00
2018-12-16T18:38:16.254Z,57.30
2018-12-16T18:40:43.734Z,36.90
2018-12-16T18:43:11.381Z,34.27
2018-12-16T18:45:39.610Z,72.77
2018-12-16T18:48:07.348Z,31.43
2018-12-16T18:50:34.921Z,30.43
2018-12-16T18:53:02.439Z,28.90
2018-12-16T18:55:29.926Z,27.50
2018-12-16T18:57:57.698Z,27.47
2018-12-16T19:00:25.348Z,31.53
2018-12-16T19:02:53.312Z,26.43
2018-12-16T19:05:20.794Z,29.10
2018-12-16T19:07:48.436Z,30.83
2018-12-16T19:10:16.150Z,29.40
2018-12-16T19:12:43.834Z,26.83
2018-12-16T19:15:12.148Z,27.53
2018-12-16T19:17:42.392Z,31.23
2018-12-16T19:20:10.746Z,30.17
2018-12-16T19:22:38.323Z,29.03
2018-12-16T19:25:06.574Z,29.60
2018-12-16T19:30:16.183Z,30.80
2018-12-16T19:32:43.681Z,30.17
2018-12-16T19:35:11.154Z,31.33
2018-12-16T19:37:38.643Z,30.90
2018-12-16T19:40:06.361Z,31.70
2018-12-16T19:42:34.023Z,31.13
2018-12-16T19:45:01.592Z,32.57
2018-12-16T19:47:29.246Z,29.63
2018-12-16T19:49:56.735Z,31.43
2018-12-16T19:52:24.264Z,32.27
2018-12-16T19:54:52.784Z,29.00
2018-12-16T19:57:20.520Z,30.00
2018-12-16T19:59:48.054Z,32.67
2018-12-16T20:02:15.540Z,30.40
2018-12-16T20:04:45.378Z,30.13
2018-12-16T20:07:12.891Z,33.47
2018-12-16T20:09:40.545Z,34.43
2018-12-16T20:12:08.179Z,37.93
2018-12-16T20:14:35.800Z,34.43
2018-12-16T20:17:03.605Z,36.30
2018-12-16T20:19:31.216Z,32.73
2018-12-16T20:21:59.121Z,34.03
2018-12-16T20:24:26.662Z,31.80
2018-12-16T20:26:54.362Z,31.93
2018-12-16T20:29:21.948Z,32.90
2018-12-16T20:31:49.449Z,33.77
2018-12-16T20:34:16.962Z,34.90
2018-12-16T20:36:44.475Z,33.53
2018-12-16T20:39:12.810Z,35.50
2018-12-16T20:41:40.412Z,34.60
2018-12-16T20:44:07.982Z,35.20
2018-12-16T20:46:35.579Z,32.10
2018-12-16T20:49:03.372Z,34.50
2018-12-16T20:51:31.058Z,36.67
2018-12-16T20:53:58.723Z,36.03
2018-12-16T20:56:26.346Z,33.87
2018-12-16T20:58:53.939Z,35.53
2018-12-16T21:01:22.298Z,35.17
2018-12-16T21:03:49.930Z,35.83
2018-12-16T21:06:17.606Z,36.57
2018-12-16T21:08:45.085Z,36.20
2018-12-16T21:11:19.067Z,35.33
2018-12-16T21:16:56.946Z,38.90
2018-12-16T21:19:26.193Z,37.90
2018-12-16T21:21:56.432Z,38.47
2018-12-16T21:24:25.355Z,38.03
2018-12-16T21:26:53.227Z,36.13
2018-12-16T21:29:20.742Z,38.87
2018-12-16T21:31:48.497Z,36.37
2018-12-16T21:34:16.107Z,39.80
2018-12-16T21:36:43.746Z,35.10
2018-12-16T21:39:11.280Z,40.10
2018-12-16T21:41:38.876Z,38.23
2018-12-16T21:44:06.807Z,36.27
2018-12-16T21:46:34.579Z,35.97
2018-12-16T21:49:02.266Z,35.17
2018-12-16T21:51:29.888Z,38.93
2018-12-16T21:53:57.397Z,35.37
2018-12-16T21:56:25.014Z,38.13
2018-12-16T21:58:56.027Z,40.70
2018-12-16T22:01:23.540Z,41.20
2018-12-16T22:03:50.999Z,40.23
2018-12-16T22:06:18.444Z,40.93
2018-12-16T22:08:46.047Z,41.70
2018-12-16T22:11:13.604Z,41.67
2018-12-16T22:13:41.135Z,42.37
2018-12-16T22:16:08.855Z,41.83
2018-12-16T22:18:48.127Z,44.23
2018-12-16T22:21:15.774Z,40.37
2018-12-16T22:23:43.246Z,43.00
2018-12-16T22:26:10.772Z,38.93
2018-12-16T22:28:38.312Z,45.60
2018-12-16T22:31:05.845Z,39.77
2018-12-16T22:33:33.707Z,44.17
2018-12-16T22:36:01.725Z,39.67
2018-12-16T22:38:29.358Z,44.23
2018-12-16T22:40:58.419Z,43.10
2018-12-16T22:43:26.045Z,39.07
2018-12-16T22:45:54.077Z,42.77
2018-12-16T22:48:21.601Z,40.17
2018-12-16T22:50:49.091Z,41.50
2018-12-16T22:53:16.625Z,41.23
2018-12-16T22:55:44.355Z,41.20
2018-12-16T22:58:11.929Z,39.93
2018-12-16T23:00:45.894Z,41.93
2018-12-16T23:03:13.496Z,40.20
2018-12-16T23:05:41.143Z,41.17
2018-12-16T23:08:08.942Z,44.63
2018-12-16T23:10:36.825Z,40.97
2018-12-16T23:13:04.323Z,44.20
2018-12-16T23:15:31.857Z,42.83
2018-12-16T23:17:59.421Z,43.83
2018-12-16T23:20:33.078Z,41.33
2018-12-16T23:23:00.588Z,43.40
2018-12-16T23:25:28.102Z,39.97
2018-12-16T23:27:55.564Z,46.07
2018-12-16T23:30:23.139Z,40.87
2018-12-16T23:32:50.605Z,47.13
2018-12-16T23:35:18.100Z,45.10
2018-12-16T23:37:45.595Z,43.70
2018-12-16T23:40:13.135Z,42.93
2018-12-16T23:42:40.615Z,41.20
2018-12-16T23:45:08.245Z,43.63
2018-12-16T23:47:35.906Z,44.33
2018-12-16T23:50:05.116Z,41.23
2018-12-16T23:52:32.778Z,45.73
2018-12-16T23:55:00.234Z,40.63
2018-12-16T23:57:27.734Z,44.37
2018-12-16T23:59:55.213Z,43.80
